Dickinson, North Dakota
Current Conditions -  °F | °C
As of 7:56 PM on Friday 19 Dec 2014 (Local Time) from KDIK Reporting Station
Clear Clear  
Wind Chill: 14°   Ceiling: Unl
Heat Index: 22°   Visibility: 10mi
Dew Point: 18°   Wind: 6mph
Humidity: 85%   Direction: 190°S
Pressure: 29.88"   Gusts: NA
Location:  46.88°N, 102.79°W
Report Text: KDIK 200256Z AUTO 19005KT 10SM CLR M06/M08 A2988 RMK AO2 SLP150 T10561078 53001
Loading
Personal Weather Stations






























Interactive Weather Map New forecast layout! Learn more

10-Day Weather Forecast

Advertisements
Track Severe Weather on mobile